createdAt,value
2023-02-24T00:00:26.000Z,1006.1
2023-02-24T00:01:42.000Z,1006
2023-02-24T00:02:58.431Z,1006
2023-02-24T00:04:14.000Z,1006
2023-02-24T00:05:30.000Z,1006
2023-02-24T00:06:47.000Z,1006
2023-02-24T00:08:03.000Z,1006
2023-02-24T00:09:18.000Z,1005.9
2023-02-24T00:10:34.000Z,1005.9
2023-02-24T00:11:50.000Z,1005.9
2023-02-24T00:13:07.000Z,1005.9
2023-02-24T00:14:23.000Z,1005.8
2023-02-24T00:15:39.000Z,1005.8
2023-02-24T00:16:55.000Z,1005.9
2023-02-24T00:18:11.782Z,1005.9
2023-02-24T00:19:28.000Z,1005.8
2023-02-24T00:20:44.000Z,1005.8
2023-02-24T00:22:00.000Z,1005.8
2023-02-24T00:23:16.000Z,1005.8
2023-02-24T00:24:32.000Z,1005.8
2023-02-24T00:25:48.000Z,1005.8
2023-02-24T00:27:04.000Z,1005.8
2023-02-24T00:28:20.000Z,1005.7
2023-02-24T00:29:36.000Z,1005.8
2023-02-24T00:30:52.000Z,1005.7
2023-02-24T00:32:08.000Z,1005.7
2023-02-24T00:33:25.000Z,1005.7
2023-02-24T00:34:41.000Z,1005.7
2023-02-24T00:35:57.000Z,1005.7
2023-02-24T00:37:13.000Z,1005.7
2023-02-24T00:38:29.000Z,1005.7
2023-02-24T00:39:46.000Z,1005.7
2023-02-24T00:41:02.275Z,1005.7
2023-02-24T00:42:17.000Z,1005.7
2023-02-24T00:43:33.000Z,1005.7
2023-02-24T00:44:49.000Z,1005.8
2023-02-24T00:46:06.000Z,1005.7
2023-02-24T00:47:22.000Z,1005.7
2023-02-24T00:48:38.000Z,1005.6
2023-02-24T00:49:54.000Z,1005.7
2023-02-24T00:51:10.000Z,1005.7
2023-02-24T00:52:27.000Z,1005.6
2023-02-24T00:53:43.243Z,1005.7
2023-02-24T00:54:59.000Z,1005.7
2023-02-24T00:56:15.000Z,1005.7
2023-02-24T00:57:31.000Z,1005.7
2023-02-24T00:58:47.000Z,1005.7
2023-02-24T01:00:03.000Z,1005.7
2023-02-24T01:01:19.000Z,1005.7
2023-02-24T01:02:35.000Z,1005.6
2023-02-24T01:03:51.000Z,1005.6
2023-02-24T01:05:08.000Z,1005.6
2023-02-24T01:06:24.000Z,1005.6
2023-02-24T01:07:40.000Z,1005.6
2023-02-24T01:08:56.000Z,1005.6
2023-02-24T01:10:12.000Z,1005.6
2023-02-24T01:11:29.000Z,1005.6
2023-02-24T01:12:45.000Z,1005.6
2023-02-24T01:14:01.000Z,1005.5
2023-02-24T01:15:16.000Z,1005.5
2023-02-24T01:16:32.000Z,1005.5
2023-02-24T01:17:49.000Z,1005.4
2023-02-24T01:19:05.156Z,1005.4
2023-02-24T01:20:21.000Z,1005.4
2023-02-24T01:21:37.000Z,1005.4
2023-02-24T01:22:53.000Z,1005.4
2023-02-24T01:24:09.000Z,1005.4
2023-02-24T01:25:26.000Z,1005.3
2023-02-24T01:26:42.000Z,1005.3
2023-02-24T01:27:58.000Z,1005.3
2023-02-24T01:29:14.000Z,1005.3
2023-02-24T01:30:30.000Z,1005.2
2023-02-24T01:31:46.109Z,1005.2
2023-02-24T01:33:02.000Z,1005.2
2023-02-24T01:34:18.000Z,1005.2
2023-02-24T01:35:34.000Z,1005.2
2023-02-24T01:36:50.000Z,1005.2
2023-02-24T01:38:07.000Z,1005.2
2023-02-24T01:39:23.000Z,1005.1
2023-02-24T01:40:39.000Z,1005.1
2023-02-24T01:41:55.000Z,1005.1
2023-02-24T01:43:11.000Z,1005.1
2023-02-24T01:44:28.000Z,1005.1
2023-02-24T01:45:44.000Z,1005.1
2023-02-24T01:47:00.000Z,1005.1
2023-02-24T01:48:15.000Z,1005
2023-02-24T01:49:31.000Z,1005
2023-02-24T01:50:48.000Z,1005
2023-02-24T01:52:04.000Z,1004.9
2023-02-24T01:53:20.000Z,1005
2023-02-24T01:54:36.000Z,1004.8
2023-02-24T01:55:52.000Z,1004.8
2023-02-24T01:57:09.000Z,1004.9
2023-02-24T01:58:25.000Z,1004.8
2023-02-24T01:59:41.000Z,1004.9
2023-02-24T02:00:57.000Z,1004.8
2023-02-24T02:02:13.000Z,1004.7
2023-02-24T02:03:30.000Z,1004.7
2023-02-24T02:04:45.000Z,1004.8
2023-02-24T02:06:01.000Z,1004.7
2023-02-24T02:07:17.000Z,1004.7
2023-02-24T02:08:33.000Z,1004.6
2023-02-24T02:09:49.951Z,1004.7
2023-02-24T02:11:06.000Z,1004.7
2023-02-24T02:12:22.000Z,1004.6
2023-02-24T02:13:38.000Z,1004.6
2023-02-24T02:14:54.000Z,1004.6
2023-02-24T02:16:10.000Z,1004.6
2023-02-24T02:17:27.000Z,1004.6
2023-02-24T02:18:43.000Z,1004.6
2023-02-24T02:19:59.000Z,1004.6
2023-02-24T02:21:14.000Z,1004.5
2023-02-24T02:22:30.000Z,1004.5
2023-02-24T02:23:47.000Z,1004.5
2023-02-24T02:25:03.000Z,1004.5
2023-02-24T02:26:19.000Z,1004.5
2023-02-24T02:27:35.000Z,1004.5
2023-02-24T02:28:51.000Z,1004.4
2023-02-24T02:30:08.000Z,1004.3
2023-02-24T02:31:24.000Z,1004.4
2023-02-24T02:32:40.000Z,1004.3
2023-02-24T02:33:56.000Z,1004.3
2023-02-24T02:35:12.000Z,1004.3
2023-02-24T02:36:29.000Z,1004.3
2023-02-24T02:37:44.000Z,1004.2
2023-02-24T02:39:00.000Z,1004.2
2023-02-24T02:40:16.000Z,1004.2
2023-02-24T02:41:32.000Z,1004.2
2023-02-24T02:42:49.000Z,1004.2
2023-02-24T02:44:05.000Z,1004.2
2023-02-24T02:45:20.000Z,1004.2
2023-02-24T02:46:36.000Z,1004.1
2023-02-24T02:47:52.820Z,1004.1
2023-02-24T02:49:09.000Z,1004.1
2023-02-24T02:50:25.000Z,1004
2023-02-24T02:51:41.000Z,1004
2023-02-24T02:52:57.000Z,1004.1
2023-02-24T02:54:13.000Z,1004
2023-02-24T02:55:30.000Z,1004
2023-02-24T02:56:46.000Z,1004
2023-02-24T02:58:02.000Z,1003.9
2023-02-24T02:59:18.000Z,1003.9
2023-02-24T03:00:34.000Z,1003.9
2023-02-24T03:01:50.000Z,1003.9
2023-02-24T03:03:06.000Z,1003.9
2023-02-24T03:04:22.000Z,1003.9
2023-02-24T03:05:38.000Z,1003.8
2023-02-24T03:06:54.000Z,1003.8
2023-02-24T03:08:11.000Z,1003.8
2023-02-24T03:09:27.000Z,1003.7
2023-02-24T03:10:43.000Z,1003.8
2023-02-24T03:11:59.000Z,1003.8
2023-02-24T03:13:15.707Z,1003.8
2023-02-24T03:14:31.000Z,1003.8
2023-02-24T03:15:48.000Z,1003.8
2023-02-24T03:17:04.000Z,1003.8
2023-02-24T03:18:19.000Z,1003.8
2023-02-24T03:19:35.000Z,1003.8
2023-02-24T03:20:51.000Z,1003.8
2023-02-24T03:22:08.000Z,1003.7
2023-02-24T03:23:24.000Z,1003.8
2023-02-24T03:24:40.000Z,1003.8
2023-02-24T03:25:56.649Z,1003.7
2023-02-24T03:27:12.000Z,1003.7
2023-02-24T03:28:29.000Z,1003.7
2023-02-24T03:29:45.000Z,1003.7
2023-02-24T03:31:01.000Z,1003.6
2023-02-24T03:32:17.000Z,1003.6
2023-02-24T03:33:33.000Z,1003.6
2023-02-24T03:34:49.000Z,1003.6
2023-02-24T03:36:05.000Z,1003.6
2023-02-24T03:37:21.000Z,1003.6
2023-02-24T03:38:37.615Z,1003.6
2023-02-24T03:39:53.000Z,1003.6
2023-02-24T03:41:10.000Z,1003.6
2023-02-24T03:42:26.000Z,1003.6
2023-02-24T03:43:42.000Z,1003.6
2023-02-24T03:44:58.000Z,1003.6
2023-02-24T03:46:14.000Z,1003.6
2023-02-24T03:47:31.000Z,1003.5
2023-02-24T03:48:47.000Z,1003.5
2023-02-24T03:50:03.000Z,1003.5
2023-02-24T03:51:18.000Z,1003.5
2023-02-24T03:52:34.000Z,1003.5
2023-02-24T03:53:51.000Z,1003.5
2023-02-24T03:55:07.000Z,1003.4
2023-02-24T03:56:23.000Z,1003.5
2023-02-24T03:57:39.000Z,1003.5
2023-02-24T03:58:55.000Z,1003.5
2023-02-24T04:00:11.000Z,1003.5
2023-02-24T04:01:28.000Z,1003.5
2023-02-24T04:02:44.000Z,1003.5
2023-02-24T04:04:00.504Z,1003.5
2023-02-24T04:05:16.000Z,1003.5
2023-02-24T04:06:32.000Z,1003.5
2023-02-24T04:07:48.000Z,1003.4
2023-02-24T04:09:04.000Z,1003.5
2023-02-24T04:10:20.000Z,1003.4
2023-02-24T04:11:36.000Z,1003.4
2023-02-24T04:12:52.000Z,1003.4
2023-02-24T04:14:09.000Z,1003.4
2023-02-24T04:15:25.000Z,1003.4
2023-02-24T04:16:41.460Z,1003.4
2023-02-24T04:17:57.000Z,1003.4
2023-02-24T04:19:13.000Z,1003.4
2023-02-24T04:20:30.000Z,1003.3
2023-02-24T04:21:46.000Z,1003.3
2023-02-24T04:23:02.000Z,1003.3
2023-02-24T04:24:17.000Z,1003.4
2023-02-24T04:25:33.000Z,1003.3
2023-02-24T04:26:50.000Z,1003.3
2023-02-24T04:28:06.000Z,1003.3
2023-02-24T04:29:22.000Z,1003.3
2023-02-24T04:30:38.000Z,1003.3
2023-02-24T04:31:54.000Z,1003.3
2023-02-24T04:33:11.000Z,1003.3
2023-02-24T04:34:27.000Z,1003.3
2023-02-24T04:35:43.000Z,1003.4
2023-02-24T04:36:59.000Z,1003.3
2023-02-24T04:38:15.000Z,1003.3
2023-02-24T04:39:32.000Z,1003.3
2023-02-24T04:40:47.000Z,1003.3
2023-02-24T04:42:03.000Z,1003.2
2023-02-24T04:43:19.000Z,1003.2
2023-02-24T04:44:35.000Z,1003.1
2023-02-24T04:45:52.000Z,1003.1
2023-02-24T04:47:08.000Z,1003.1
2023-02-24T04:48:24.000Z,1003.1
2023-02-24T04:49:40.000Z,1003
2023-02-24T04:50:56.000Z,1003
2023-02-24T04:52:12.000Z,1003
2023-02-24T04:53:29.000Z,1003
2023-02-24T04:54:45.306Z,1002.9
2023-02-24T04:56:01.000Z,1003
2023-02-24T04:57:16.000Z,1002.9
2023-02-24T04:58:32.000Z,1002.9
2023-02-24T04:59:49.000Z,1002.9
2023-02-24T05:01:05.000Z,1002.9
2023-02-24T05:02:21.000Z,1002.8
2023-02-24T05:03:37.000Z,1002.8
2023-02-24T05:04:53.000Z,1002.8
2023-02-24T05:06:10.000Z,1002.7
2023-02-24T05:07:26.000Z,1002.8
2023-02-24T05:08:42.000Z,1002.8
2023-02-24T05:09:58.000Z,1002.7
2023-02-24T05:11:14.000Z,1002.7
2023-02-24T05:12:31.000Z,1002.7
2023-02-24T05:13:46.000Z,1002.7
2023-02-24T05:15:02.000Z,1002.6
2023-02-24T05:16:18.000Z,1002.7
2023-02-24T05:17:34.000Z,1002.6
2023-02-24T05:18:51.000Z,1002.7
2023-02-24T05:20:07.000Z,1002.6
2023-02-24T05:21:23.000Z,1002.6
2023-02-24T05:22:39.000Z,1002.6
2023-02-24T05:23:55.000Z,1002.6
2023-02-24T05:25:12.000Z,1002.5
2023-02-24T05:26:28.000Z,1002.5
2023-02-24T05:27:44.000Z,1002.5
2023-02-24T05:29:00.000Z,1002.5
2023-02-24T05:30:15.000Z,1002.4
2023-02-24T05:31:32.000Z,1002.5
2023-02-24T05:32:48.166Z,1002.4
2023-02-24T05:34:04.000Z,1002.4
2023-02-24T05:35:20.000Z,1002.4
2023-02-24T05:36:36.000Z,1002.3
2023-02-24T05:37:53.000Z,1002.3
2023-02-24T05:39:09.000Z,1002.3
2023-02-24T05:40:25.000Z,1002.3
2023-02-24T05:41:41.000Z,1002.3
2023-02-24T05:42:57.000Z,1002.3
2023-02-24T05:44:13.000Z,1002.3
2023-02-24T05:45:30.107Z,1002.2
2023-02-24T05:46:45.000Z,1002.2
2023-02-24T05:48:01.000Z,1002.2
2023-02-24T05:49:17.000Z,1002.1
2023-02-24T05:50:33.904Z,1002.2
2023-02-24T05:51:50.000Z,1002.2
2023-02-24T05:53:06.000Z,1002.1
2023-02-24T05:54:22.000Z,1002
2023-02-24T05:55:38.000Z,1002
2023-02-24T05:56:54.000Z,1001.9
2023-02-24T05:58:11.000Z,1002
2023-02-24T05:59:27.000Z,1002
2023-02-24T06:00:43.000Z,1002
2023-02-24T06:01:59.000Z,1001.9
2023-02-24T06:03:14.000Z,1001.8
2023-02-24T06:04:31.000Z,1001.9
2023-02-24T06:05:47.000Z,1001.8
2023-02-24T06:07:03.469Z,1001.8
2023-02-24T06:08:19.000Z,1001.8
2023-02-24T06:09:35.000Z,1001.8
2023-02-24T06:10:52.000Z,1001.8
2023-02-24T06:12:08.000Z,1001.7
2023-02-24T06:13:24.000Z,1001.7
2023-02-24T06:14:40.000Z,1001.7
2023-02-24T06:15:56.000Z,1001.7
2023-02-24T06:17:13.000Z,1001.6
2023-02-24T06:18:29.000Z,1001.6
2023-02-24T06:19:44.000Z,1001.6
2023-02-24T06:21:00.000Z,1001.6
2023-02-24T06:22:16.000Z,1001.6
2023-02-24T06:23:33.034Z,1001.5
2023-02-24T06:24:49.000Z,1001.6
2023-02-24T06:26:05.000Z,1001.6
2023-02-24T06:27:21.000Z,1001.5
2023-02-24T06:28:37.000Z,1001.5
2023-02-24T06:29:54.000Z,1001.6
2023-02-24T06:31:10.000Z,1001.5
2023-02-24T06:32:26.000Z,1001.6
2023-02-24T06:33:42.000Z,1001.6
2023-02-24T06:34:58.000Z,1001.5
2023-02-24T06:36:14.000Z,1001.5
2023-02-24T06:37:30.190Z,1001.5
2023-02-24T06:38:46.000Z,1001.5
2023-02-24T06:40:02.000Z,1001.4
2023-02-24T06:41:18.000Z,1001.4
2023-02-24T06:42:35.000Z,1001.4
2023-02-24T06:43:51.000Z,1001.4
2023-02-24T06:45:07.000Z,1001.4
2023-02-24T06:46:23.000Z,1001.4
2023-02-24T06:47:39.000Z,1001.4
2023-02-24T06:48:56.000Z,1001.4
2023-02-24T06:50:12.000Z,1001.3
2023-02-24T06:51:28.000Z,1001.3
2023-02-24T06:52:43.000Z,1001.3
2023-02-24T06:53:59.000Z,1001.3
2023-02-24T06:55:15.958Z,1001.3
2023-02-24T06:56:32.000Z,1001.3
2023-02-24T06:57:48.000Z,1001.3
2023-02-24T06:59:04.000Z,1001.2
2023-02-24T07:00:19.000Z,1001.2
2023-02-24T07:01:35.940Z,1001.2
2023-02-24T07:02:52.000Z,1001.2
2023-02-24T07:04:08.000Z,1001.2
2023-02-24T07:05:24.000Z,1001.2
2023-02-24T07:06:40.000Z,1001.2
2023-02-24T07:07:57.000Z,1001.1
2023-02-24T07:09:13.000Z,1001.1
2023-02-24T07:10:29.000Z,1001
2023-02-24T07:11:45.000Z,1001.1
2023-02-24T07:13:01.000Z,1001
2023-02-24T07:14:17.000Z,1001.1
2023-02-24T07:15:34.000Z,1001
2023-02-24T07:16:49.000Z,1001
2023-02-24T07:18:05.000Z,1001
2023-02-24T07:19:21.000Z,1000.9
2023-02-24T07:20:37.000Z,1000.9
2023-02-24T07:21:54.000Z,1000.9
2023-02-24T07:23:10.000Z,1001
2023-02-24T07:24:26.477Z,1000.9
2023-02-24T07:25:42.675Z,1000.9
2023-02-24T07:26:58.878Z,1000.9
2023-02-24T07:28:15.000Z,1000.8
2023-02-24T07:29:31.000Z,1000.8
2023-02-24T07:30:47.000Z,1000.8
2023-02-24T07:32:03.000Z,1000.9
2023-02-24T07:33:18.000Z,1000.8
2023-02-24T07:34:35.000Z,1000.8
2023-02-24T07:35:51.000Z,1000.7
2023-02-24T07:37:07.000Z,1000.7
2023-02-24T07:38:23.000Z,1000.7
2023-02-24T07:39:39.000Z,1000.6
2023-02-24T07:40:56.000Z,1000.6
2023-02-24T07:42:12.000Z,1000.6
2023-02-24T07:43:28.000Z,1000.6
2023-02-24T07:44:44.000Z,1000.5
2023-02-24T07:46:00.000Z,1000.5
2023-02-24T07:47:17.000Z,1000.5
2023-02-24T07:48:33.000Z,1000.4
2023-02-24T07:49:48.000Z,1000.3
2023-02-24T07:51:04.617Z,1000.4
2023-02-24T07:52:20.000Z,1000.4
2023-02-24T07:53:37.000Z,1000.3
2023-02-24T07:54:53.000Z,1000.3
2023-02-24T07:56:09.000Z,1000.3
2023-02-24T07:57:25.000Z,1000.4
2023-02-24T07:58:41.000Z,1000.3
2023-02-24T07:59:58.000Z,1000.3
2023-02-24T08:01:14.000Z,1000.3
2023-02-24T08:02:30.000Z,1000.3
2023-02-24T08:03:46.000Z,1000.2
2023-02-24T08:05:02.000Z,1000.3
2023-02-24T08:06:18.000Z,1000.3
2023-02-24T08:07:34.000Z,1000.2
2023-02-24T08:08:50.000Z,1000.2
2023-02-24T08:10:06.000Z,1000.2
2023-02-24T08:11:22.000Z,1000.3
2023-02-24T08:12:39.000Z,1000.2
2023-02-24T08:13:55.000Z,1000.2
2023-02-24T08:15:11.000Z,1000.2
2023-02-24T08:16:27.000Z,1000.2
2023-02-24T08:17:43.000Z,1000.2
2023-02-24T08:19:00.000Z,1000.1
2023-02-24T08:20:16.000Z,1000
2023-02-24T08:21:32.000Z,1000.1
2023-02-24T08:22:47.000Z,1000.1
2023-02-24T08:24:03.000Z,1000
2023-02-24T08:25:20.000Z,1000
2023-02-24T08:26:36.134Z,1000
2023-02-24T08:27:52.000Z,1000
2023-02-24T08:29:08.000Z,1000
2023-02-24T08:30:24.719Z,999.9
2023-02-24T08:31:41.000Z,999.9
2023-02-24T08:32:57.000Z,999.9
2023-02-24T08:34:13.000Z,999.9
2023-02-24T08:35:29.000Z,1000
2023-02-24T08:36:45.000Z,999.8
2023-02-24T08:38:01.000Z,999.8
2023-02-24T08:39:17.000Z,999.8
2023-02-24T08:40:33.000Z,999.8
2023-02-24T08:41:49.000Z,999.8
2023-02-24T08:43:05.000Z,999.8
2023-02-24T08:44:21.890Z,999.8
2023-02-24T08:45:38.000Z,999.7
2023-02-24T08:46:54.000Z,999.8
2023-02-24T08:48:10.000Z,999.8
2023-02-24T08:49:26.000Z,999.7
2023-02-24T08:50:42.000Z,999.7
2023-02-24T08:51:59.000Z,999.7
2023-02-24T08:53:15.000Z,999.6
2023-02-24T08:54:31.000Z,999.7
2023-02-24T08:55:46.677Z,999.6
2023-02-24T08:57:02.000Z,999.6
2023-02-24T08:58:19.057Z,999.6
2023-02-24T08:59:35.000Z,999.5
2023-02-24T09:00:51.000Z,999.6
2023-02-24T09:02:07.000Z,999.5
2023-02-24T09:03:23.000Z,999.5
2023-02-24T09:04:40.000Z,999.5
2023-02-24T09:05:56.000Z,999.5
2023-02-24T09:07:12.000Z,999.4
2023-02-24T09:08:28.627Z,999.4
2023-02-24T09:09:44.000Z,999.4
2023-02-24T09:11:01.000Z,999.4
2023-02-24T09:12:16.000Z,999.4
2023-02-24T09:13:32.000Z,999.4
2023-02-24T09:14:48.000Z,999.3
2023-02-24T09:16:04.000Z,999.2
2023-02-24T09:17:21.000Z,999.2
2023-02-24T09:18:37.000Z,999.1
2023-02-24T09:19:53.000Z,999.1
2023-02-24T09:21:09.000Z,999.2
2023-02-24T09:22:25.000Z,999.1
2023-02-24T09:23:42.000Z,999
2023-02-24T09:24:58.000Z,999
2023-02-24T09:26:14.000Z,999
2023-02-24T09:27:30.000Z,999
2023-02-24T09:28:45.000Z,998.9
2023-02-24T09:30:02.000Z,999
2023-02-24T09:31:18.000Z,999
2023-02-24T09:32:34.000Z,999
2023-02-24T09:33:50.000Z,999
2023-02-24T09:35:06.000Z,998.9
2023-02-24T09:36:23.000Z,999
2023-02-24T09:37:39.000Z,998.9
2023-02-24T09:38:55.000Z,998.9
2023-02-24T09:40:11.549Z,998.9
2023-02-24T09:41:27.000Z,998.9
2023-02-24T09:42:44.000Z,998.9
2023-02-24T09:44:00.000Z,998.8
2023-02-24T09:45:15.000Z,998.8
2023-02-24T09:46:31.000Z,998.7
2023-02-24T09:47:47.000Z,998.8
2023-02-24T09:49:03.931Z,998.7
2023-02-24T09:50:20.000Z,998.7
2023-02-24T09:51:36.000Z,998.7
2023-02-24T09:52:52.000Z,998.7
2023-02-24T09:54:08.000Z,998.6
2023-02-24T09:55:25.000Z,998.5
2023-02-24T09:56:41.000Z,998.6
2023-02-24T09:57:57.000Z,998.6
2023-02-24T09:59:13.500Z,998.6
2023-02-24T10:00:29.000Z,998.5
2023-02-24T10:01:45.000Z,998.5
2023-02-24T10:03:01.000Z,998.4
2023-02-24T10:04:17.000Z,998.4
2023-02-24T10:05:33.000Z,998.5
2023-02-24T10:06:49.000Z,998.5
2023-02-24T10:08:05.000Z,998.4
2023-02-24T10:09:22.000Z,998.4
2023-02-24T10:10:38.000Z,998.4
2023-02-24T10:11:54.474Z,998.3
2023-02-24T10:13:10.000Z,998.3
2023-02-24T10:14:26.000Z,998.2
2023-02-24T10:15:43.000Z,998.3
2023-02-24T10:16:59.000Z,998.3
2023-02-24T10:18:14.000Z,998.3
2023-02-24T10:19:30.000Z,998.3
2023-02-24T10:20:46.000Z,998.2
2023-02-24T10:22:03.000Z,998.2
2023-02-24T10:23:19.000Z,998.2
2023-02-24T10:24:35.000Z,998.2
2023-02-24T10:25:51.000Z,998.2
2023-02-24T10:27:07.000Z,998.1
2023-02-24T10:28:24.000Z,998.2
2023-02-24T10:29:40.000Z,998.1
2023-02-24T10:30:56.000Z,998.2
2023-02-24T10:32:12.627Z,998.1
2023-02-24T10:33:28.000Z,998.1
2023-02-24T10:34:44.000Z,998.1
2023-02-24T10:36:00.000Z,998
2023-02-24T10:37:16.413Z,998.1
2023-02-24T10:38:32.000Z,998
2023-02-24T10:39:48.000Z,998
2023-02-24T10:41:05.000Z,998
2023-02-24T10:42:21.000Z,998
2023-02-24T10:43:37.000Z,997.9
2023-02-24T10:44:53.000Z,997.9
2023-02-24T10:46:09.000Z,997.9
2023-02-24T10:47:26.000Z,997.9
2023-02-24T10:48:42.000Z,997.8
2023-02-24T10:49:58.000Z,997.8
2023-02-24T10:51:13.000Z,997.8
2023-02-24T10:52:29.784Z,997.8
2023-02-24T10:53:46.000Z,997.7
2023-02-24T10:55:02.000Z,997.7
2023-02-24T10:56:18.000Z,997.7
2023-02-24T10:57:34.000Z,997.6
2023-02-24T10:58:50.000Z,997.6
2023-02-24T11:00:06.969Z,997.5
2023-02-24T11:01:23.168Z,997.5
2023-02-24T11:02:39.350Z,997.5
2023-02-24T11:03:55.000Z,997.5
2023-02-24T11:05:11.000Z,997.4
2023-02-24T11:06:28.000Z,997.4
2023-02-24T11:07:43.000Z,997.4
2023-02-24T11:08:59.357Z,997.4
2023-02-24T11:10:15.000Z,997.4
2023-02-24T11:11:31.000Z,997.4
2023-02-24T11:12:48.000Z,997.4
2023-02-24T11:14:04.000Z,997.3
2023-02-24T11:15:19.353Z,997.3
2023-02-24T11:16:35.000Z,997.1
2023-02-24T11:17:51.000Z,997.3
2023-02-24T11:19:08.000Z,997.1
2023-02-24T11:20:24.000Z,997.1
2023-02-24T11:21:40.000Z,997.1
2023-02-24T11:22:56.000Z,997.1
2023-02-24T11:24:12.000Z,997.1
2023-02-24T11:25:29.000Z,997.1
2023-02-24T11:26:45.000Z,997
2023-02-24T11:28:01.000Z,997
2023-02-24T11:29:17.000Z,997
2023-02-24T11:30:33.000Z,997
2023-02-24T11:31:49.000Z,997
2023-02-24T11:33:05.000Z,997
2023-02-24T11:34:21.000Z,996.9
2023-02-24T11:35:37.000Z,996.9
2023-02-24T11:36:53.000Z,996.9
2023-02-24T11:38:09.000Z,996.8
2023-02-24T11:39:26.000Z,996.8
2023-02-24T11:40:42.277Z,996.7
2023-02-24T11:41:58.000Z,996.7
2023-02-24T11:43:14.000Z,996.7
2023-02-24T11:44:30.000Z,996.8
2023-02-24T11:45:47.000Z,996.7
2023-02-24T11:47:03.000Z,996.7
2023-02-24T11:48:18.000Z,996.6
2023-02-24T11:49:34.000Z,996.6
2023-02-24T11:50:50.000Z,996.5
2023-02-24T11:52:07.000Z,996.6
2023-02-24T11:53:23.000Z,996.5
2023-02-24T11:54:39.000Z,996.5
2023-02-24T11:55:55.000Z,996.4
2023-02-24T11:57:11.000Z,996.5
2023-02-24T11:58:28.000Z,996.4
2023-02-24T11:59:44.000Z,996.4
2023-02-24T12:01:00.000Z,996.4
2023-02-24T12:02:16.000Z,996.3
2023-02-24T12:03:32.000Z,996.2
2023-02-24T12:04:48.000Z,996.4
2023-02-24T12:06:04.000Z,996.3
2023-02-24T12:07:20.000Z,996.3
2023-02-24T12:08:36.000Z,996.4
2023-02-24T12:09:52.000Z,996.3
2023-02-24T12:11:09.000Z,996.2
2023-02-24T12:12:25.000Z,996.3
2023-02-24T12:13:41.000Z,996.3
2023-02-24T12:14:57.000Z,996.3
2023-02-24T12:16:13.000Z,996.3
2023-02-24T12:17:30.000Z,996.2
2023-02-24T12:18:46.000Z,996.2
2023-02-24T12:20:02.000Z,996.2
2023-02-24T12:21:17.000Z,996.1
2023-02-24T12:22:33.000Z,996.2
2023-02-24T12:23:50.000Z,996.2
2023-02-24T12:25:06.000Z,996.2
2023-02-24T12:26:22.000Z,996.2
2023-02-24T12:27:38.000Z,996.1
2023-02-24T12:28:54.000Z,996.1
2023-02-24T12:30:11.000Z,996.1
2023-02-24T12:31:27.000Z,996.2
2023-02-24T12:32:43.000Z,996.1
2023-02-24T12:33:59.557Z,996.1
2023-02-24T12:35:15.000Z,996.1
2023-02-24T12:36:32.000Z,996.1
2023-02-24T12:37:47.000Z,996.1
2023-02-24T12:39:03.000Z,996
2023-02-24T12:40:19.000Z,996
2023-02-24T12:41:35.000Z,996
2023-02-24T12:42:52.000Z,996
2023-02-24T12:44:08.149Z,996
2023-02-24T12:45:24.000Z,996
2023-02-24T12:46:40.540Z,996
2023-02-24T12:47:56.000Z,996
2023-02-24T12:49:13.000Z,996
2023-02-24T12:50:29.000Z,995.9
2023-02-24T12:51:45.000Z,995.9
2023-02-24T12:53:01.000Z,996
2023-02-24T12:54:16.000Z,995.9
2023-02-24T12:55:33.000Z,995.8
2023-02-24T12:56:49.000Z,995.8
2023-02-24T12:58:05.000Z,995.9
2023-02-24T12:59:21.000Z,995.8
2023-02-24T13:00:37.000Z,995.8
2023-02-24T13:01:54.000Z,995.8
2023-02-24T13:03:10.000Z,995.8
2023-02-24T13:04:26.000Z,995.8
2023-02-24T13:05:42.000Z,995.8
2023-02-24T13:06:58.000Z,995.8
2023-02-24T13:08:14.000Z,995.8
2023-02-24T13:09:31.000Z,995.8
2023-02-24T13:10:46.287Z,995.8
2023-02-24T13:12:02.000Z,995.7
2023-02-24T13:13:18.000Z,995.7
2023-02-24T13:14:34.000Z,995.7
2023-02-24T13:15:51.000Z,995.7
2023-02-24T13:17:07.000Z,995.7
2023-02-24T13:18:23.000Z,995.6
2023-02-24T13:19:39.000Z,995.7
2023-02-24T13:20:55.000Z,995.6
2023-02-24T13:22:12.063Z,995.6
2023-02-24T13:23:28.000Z,995.5
2023-02-24T13:24:44.000Z,995.5
2023-02-24T13:26:00.000Z,995.4
2023-02-24T13:27:15.000Z,995.5
2023-02-24T13:28:32.000Z,995.5
2023-02-24T13:29:48.000Z,995.4
2023-02-24T13:31:04.000Z,995.3
2023-02-24T13:32:20.000Z,995.3
2023-02-24T13:33:36.000Z,995.2
2023-02-24T13:34:53.000Z,995.1
2023-02-24T13:36:09.000Z,995.1
2023-02-24T13:37:25.000Z,995.1
2023-02-24T13:38:41.000Z,995.2
2023-02-24T13:39:57.000Z,995.1
2023-02-24T13:41:14.013Z,995
2023-02-24T13:42:30.000Z,994.9
2023-02-24T13:43:45.000Z,995
2023-02-24T13:45:01.000Z,995.1
2023-02-24T13:46:17.000Z,995.1
2023-02-24T13:47:34.000Z,995
2023-02-24T13:48:50.000Z,995
2023-02-24T13:50:06.000Z,995
2023-02-24T13:51:22.000Z,995
2023-02-24T13:52:38.000Z,994.9
2023-02-24T13:53:55.000Z,994.9
2023-02-24T13:55:11.000Z,994.9
2023-02-24T13:56:27.459Z,994.9
2023-02-24T13:57:43.000Z,994.8
2023-02-24T13:58:59.000Z,994.9
2023-02-24T14:00:15.000Z,994.8
2023-02-24T14:01:31.000Z,994.7
2023-02-24T14:02:47.451Z,994.7
2023-02-24T14:04:03.000Z,994.7
2023-02-24T14:05:19.000Z,994.7
2023-02-24T14:06:36.000Z,994.6
2023-02-24T14:07:52.000Z,994.6
2023-02-24T14:09:08.000Z,994.5
2023-02-24T14:10:24.000Z,994.5
2023-02-24T14:11:40.000Z,994.5
2023-02-24T14:12:57.031Z,994.5
2023-02-24T14:14:13.000Z,994.5
2023-02-24T14:15:29.000Z,994.4
2023-02-24T14:16:44.000Z,994.4
2023-02-24T14:18:00.000Z,994.5
2023-02-24T14:19:17.000Z,994.4
2023-02-24T14:20:33.000Z,994.5
2023-02-24T14:21:49.000Z,994.4
2023-02-24T14:23:05.000Z,994.4
2023-02-24T14:24:21.000Z,994.4
2023-02-24T14:25:38.000Z,994.4
2023-02-24T14:26:54.000Z,994.3
2023-02-24T14:28:10.000Z,994.3
2023-02-24T14:29:26.000Z,994.3
2023-02-24T14:30:42.000Z,994.3
2023-02-24T14:31:59.000Z,994.4
2023-02-24T14:33:14.000Z,994.4
2023-02-24T14:34:30.000Z,994.3
2023-02-24T14:35:46.000Z,994.3
2023-02-24T14:37:02.000Z,994.3
2023-02-24T14:38:19.000Z,994.3
2023-02-24T14:39:35.171Z,994.2
2023-02-24T14:40:51.376Z,994.2
2023-02-24T14:42:07.000Z,994.2
2023-02-24T14:43:23.000Z,994.2
2023-02-24T14:44:39.000Z,994.2
2023-02-24T14:45:56.000Z,994.1
2023-02-24T14:47:12.000Z,994
2023-02-24T14:48:28.000Z,994.1
2023-02-24T14:49:43.000Z,994
2023-02-24T14:50:59.958Z,994.1
2023-02-24T14:52:16.000Z,994
2023-02-24T14:53:32.000Z,994.1
2023-02-24T14:54:48.554Z,994
2023-02-24T14:56:04.000Z,994.1
2023-02-24T14:57:20.000Z,994
2023-02-24T14:58:37.000Z,994.1
2023-02-24T14:59:53.000Z,994.1
2023-02-24T15:01:09.000Z,994.1
2023-02-24T15:02:25.712Z,994.1
2023-02-24T15:03:41.000Z,994.1
2023-02-24T15:04:58.000Z,994.1
2023-02-24T15:06:13.000Z,994.1
2023-02-24T15:07:29.000Z,994.1
2023-02-24T15:08:45.000Z,994
2023-02-24T15:10:01.884Z,994
2023-02-24T15:11:18.000Z,994
2023-02-24T15:12:34.000Z,994
2023-02-24T15:13:50.000Z,994
2023-02-24T15:15:06.664Z,993.9
2023-02-24T15:16:22.000Z,993.9
2023-02-24T15:17:39.000Z,993.9
2023-02-24T15:18:55.000Z,993.9
2023-02-24T15:20:11.000Z,993.9
2023-02-24T15:21:27.000Z,994
2023-02-24T15:22:42.831Z,994
2023-02-24T15:23:59.000Z,993.9
2023-02-24T15:25:15.225Z,993.9
2023-02-24T15:26:31.000Z,993.8
2023-02-24T15:27:47.000Z,993.8
2023-02-24T15:29:03.801Z,993.8
2023-02-24T15:30:19.000Z,993.7
2023-02-24T15:31:35.000Z,993.8
2023-02-24T15:32:51.000Z,993.7
2023-02-24T15:34:07.000Z,993.7
2023-02-24T15:35:23.000Z,993.7
2023-02-24T15:36:40.000Z,993.7
2023-02-24T15:37:56.000Z,993.7
2023-02-24T15:39:12.377Z,993.7
2023-02-24T15:40:28.000Z,993.7
2023-02-24T15:41:44.768Z,993.7
2023-02-24T15:43:00.000Z,993.6
2023-02-24T15:44:17.000Z,993.7
2023-02-24T15:45:33.000Z,993.6
2023-02-24T15:46:48.000Z,993.6
2023-02-24T15:48:04.000Z,993.6
2023-02-24T15:49:20.000Z,993.5
2023-02-24T15:50:37.000Z,993.5
2023-02-24T15:51:53.000Z,993.5
2023-02-24T15:53:09.000Z,993.6
2023-02-24T15:54:25.000Z,993.5
2023-02-24T15:55:41.000Z,993.4
2023-02-24T15:56:58.000Z,993.4
2023-02-24T15:58:14.000Z,993.4
2023-02-24T15:59:30.000Z,993.4
2023-02-24T16:00:46.000Z,993.4
2023-02-24T16:02:02.875Z,993.4
2023-02-24T16:03:18.000Z,993.4
2023-02-24T16:04:34.000Z,993.4
2023-02-24T16:05:50.000Z,993.3
2023-02-24T16:07:06.000Z,993.3
2023-02-24T16:08:22.000Z,993.3
2023-02-24T16:09:39.000Z,993.3
2023-02-24T16:10:55.000Z,993.3